createdAt,value
2023-03-19T00:00:10.887Z,8.81
2023-03-19T00:01:10.852Z,8.84
2023-03-19T00:02:17.604Z,8.85
2023-03-19T00:03:10.828Z,8.89
2023-03-19T00:04:10.759Z,8.82
2023-03-19T00:05:10.779Z,8.71
2023-03-19T00:06:10.684Z,8.78
2023-03-19T00:07:10.653Z,8.81
2023-03-19T00:08:10.722Z,8.71
2023-03-19T00:09:10.581Z,8.73
2023-03-19T00:10:10.550Z,8.69
2023-03-19T00:11:10.555Z,8.67
2023-03-19T00:12:10.484Z,8.61
2023-03-19T00:13:10.459Z,8.60
2023-03-19T00:14:10.477Z,8.52
2023-03-19T00:15:10.385Z,8.55
2023-03-19T00:16:10.414Z,8.63
2023-03-19T00:17:10.312Z,8.55
2023-03-19T00:18:10.318Z,8.61
2023-03-19T00:19:10.303Z,8.53
2023-03-19T00:20:10.222Z,8.53
2023-03-19T00:21:10.180Z,8.61
2023-03-19T00:22:10.158Z,8.53
2023-03-19T00:23:10.112Z,8.53
2023-03-19T00:24:10.151Z,8.42
2023-03-19T00:25:10.162Z,8.51
2023-03-19T00:26:10.021Z,8.31
2023-03-19T00:27:09.982Z,8.34
2023-03-19T00:28:09.947Z,8.30
2023-03-19T00:29:09.910Z,8.31
2023-03-19T00:30:09.927Z,8.30
2023-03-19T00:31:09.901Z,8.37
2023-03-19T00:32:09.816Z,8.37
2023-03-19T00:33:09.813Z,8.41
2023-03-19T00:34:09.730Z,8.26
2023-03-19T00:35:09.760Z,8.37
2023-03-19T00:36:09.812Z,8.36
2023-03-19T00:37:09.641Z,8.31
2023-03-19T00:38:09.598Z,8.34
2023-03-19T00:39:09.580Z,8.34
2023-03-19T00:40:09.526Z,8.20
2023-03-19T00:41:09.559Z,8.24
2023-03-19T00:42:09.460Z,8.24
2023-03-19T00:43:09.423Z,8.20
2023-03-19T00:44:09.404Z,8.19
2023-03-19T00:45:09.348Z,8.24
2023-03-19T00:46:09.320Z,8.23
2023-03-19T00:47:09.341Z,8.19
2023-03-19T00:48:09.260Z,8.20
2023-03-19T00:49:09.219Z,8.23
2023-03-19T00:50:09.188Z,8.20
2023-03-19T00:51:09.152Z,8.18
2023-03-19T00:52:09.119Z,8.15
2023-03-19T00:53:09.140Z,8.13
2023-03-19T00:54:09.046Z,8.08
2023-03-19T00:55:09.004Z,8.10
2023-03-19T00:56:08.989Z,8.16
2023-03-19T00:57:08.943Z,8.12
2023-03-19T00:58:08.923Z,8.13
2023-03-19T00:59:08.926Z,8.05
2023-03-19T01:00:08.844Z,8.05
2023-03-19T01:01:08.875Z,8.01
2023-03-19T01:02:08.777Z,7.97
2023-03-19T01:03:08.761Z,7.94
2023-03-19T01:04:08.780Z,7.93
2023-03-19T01:05:08.658Z,7.88
2023-03-19T01:06:08.674Z,7.85
2023-03-19T01:07:08.597Z,7.77
2023-03-19T01:08:08.558Z,7.76
2023-03-19T01:09:08.532Z,7.75
2023-03-19T01:10:08.508Z,7.77
2023-03-19T01:11:08.450Z,7.77
2023-03-19T01:12:08.491Z,7.80
2023-03-19T01:13:08.377Z,7.73
2023-03-19T01:14:08.339Z,7.73
2023-03-19T01:15:08.320Z,7.72
2023-03-19T01:16:08.277Z,7.73
2023-03-19T01:17:08.244Z,7.75
2023-03-19T01:18:08.304Z,7.79
2023-03-19T01:19:08.182Z,7.80
2023-03-19T01:20:08.140Z,7.73
2023-03-19T01:21:08.107Z,7.80
2023-03-19T01:22:08.073Z,7.77
2023-03-19T01:23:08.034Z,7.77
2023-03-19T01:24:08.064Z,7.88
2023-03-19T01:25:07.981Z,7.85
2023-03-19T01:26:07.938Z,7.80
2023-03-19T01:27:07.893Z,7.95
2023-03-19T01:28:07.937Z,8.00
2023-03-19T01:29:07.876Z,7.94
2023-03-19T01:30:07.808Z,8.00
2023-03-19T01:31:07.852Z,8.05
2023-03-19T01:32:07.721Z,8.03
2023-03-19T01:33:07.847Z,8.01
2023-03-19T01:34:07.653Z,8.08
2023-03-19T01:35:07.631Z,8.09
2023-03-19T01:36:07.663Z,8.15
2023-03-19T01:37:07.547Z,8.09
2023-03-19T01:38:07.558Z,8.00
2023-03-19T01:39:07.471Z,8.08
2023-03-19T01:40:07.445Z,8.09
2023-03-19T01:41:07.404Z,8.10
2023-03-19T01:42:07.370Z,8.08
2023-03-19T01:43:07.423Z,8.08
2023-03-19T01:44:07.302Z,8.13
2023-03-19T01:45:07.272Z,8.09
2023-03-19T01:46:07.292Z,8.20
2023-03-19T01:47:07.204Z,8.18
2023-03-19T01:48:07.164Z,8.23
2023-03-19T01:49:07.222Z,8.24
2023-03-19T01:50:07.091Z,8.31
2023-03-19T01:51:07.056Z,8.28
2023-03-19T01:52:07.047Z,8.36
2023-03-19T01:53:06.992Z,8.28
2023-03-19T01:54:06.956Z,8.42
2023-03-19T01:55:06.978Z,8.36
2023-03-19T01:56:06.886Z,8.30
2023-03-19T01:57:06.855Z,8.45
2023-03-19T01:58:06.824Z,8.34
2023-03-19T01:59:06.785Z,8.31
2023-03-19T02:00:06.818Z,8.42
2023-03-19T02:01:06.721Z,8.48
2023-03-19T02:02:06.691Z,8.42
2023-03-19T02:03:06.665Z,8.48
2023-03-19T02:04:06.632Z,8.42
2023-03-19T02:05:06.582Z,8.37
2023-03-19T02:06:06.650Z,8.49
2023-03-19T02:07:06.512Z,8.49
2023-03-19T02:08:06.492Z,8.42
2023-03-19T02:09:06.435Z,8.48
2023-03-19T02:10:06.414Z,8.49
2023-03-19T02:11:06.390Z,8.46
2023-03-19T02:12:06.699Z,8.55
2023-03-19T02:13:06.350Z,8.53
2023-03-19T02:14:06.276Z,8.51
2023-03-19T02:15:06.230Z,8.61
2023-03-19T02:16:06.242Z,8.66
2023-03-19T02:17:06.175Z,8.64
2023-03-19T02:23:03.312Z,8.74
2023-03-19T02:23:42.231Z,8.73
2023-03-19T02:24:42.186Z,8.67
2023-03-19T02:25:42.160Z,8.67
2023-03-19T02:26:42.125Z,8.64
2023-03-19T02:27:42.091Z,8.53
2023-03-19T02:28:42.137Z,8.53
2023-03-19T02:29:42.021Z,8.56
2023-03-19T02:30:41.982Z,8.60
2023-03-19T02:31:42.068Z,8.58
2023-03-19T02:32:41.935Z,8.55
2023-03-19T02:33:42.008Z,8.56
2023-03-19T02:34:41.845Z,8.58
2023-03-19T02:35:41.833Z,8.53
2023-03-19T02:36:41.787Z,8.55
2023-03-19T02:37:41.797Z,8.58
2023-03-19T02:38:41.716Z,8.52
2023-03-19T02:39:41.689Z,8.49
2023-03-19T02:40:41.667Z,8.56
2023-03-19T02:41:41.627Z,8.55
2023-03-19T02:42:41.626Z,8.56
2023-03-19T02:43:41.543Z,8.58
2023-03-19T02:44:41.497Z,8.53
2023-03-19T02:45:41.479Z,8.60
2023-03-19T02:46:41.528Z,8.66
2023-03-19T02:47:41.468Z,8.70
2023-03-19T02:48:41.893Z,8.64
2023-03-19T02:49:41.344Z,8.66
2023-03-19T02:50:41.302Z,8.66
2023-03-19T02:51:41.278Z,8.76
2023-03-19T02:52:41.307Z,8.74
2023-03-19T02:53:41.194Z,8.74
2023-03-19T02:54:41.164Z,8.82
2023-03-19T02:55:41.120Z,8.87
2023-03-19T02:56:41.096Z,8.89
2023-03-19T02:57:41.053Z,8.89
2023-03-19T02:58:41.076Z,8.85
2023-03-19T02:59:40.997Z,8.78
2023-03-19T03:00:41.011Z,8.91
2023-03-19T03:01:40.978Z,9.08
2023-03-19T03:02:40.889Z,8.95
2023-03-19T03:03:40.856Z,8.99
2023-03-19T03:04:40.880Z,9.00
2023-03-19T03:05:40.799Z,9.13
2023-03-19T03:06:40.759Z,9.13
2023-03-19T03:07:40.731Z,9.18
2023-03-19T03:08:40.690Z,9.16
2023-03-19T03:09:40.660Z,9.21
2023-03-19T03:10:40.679Z,9.21
2023-03-19T03:11:40.596Z,9.29
2023-03-19T03:12:40.551Z,9.28
2023-03-19T03:13:40.523Z,9.32
2023-03-19T03:14:40.490Z,9.36
2023-03-19T03:15:40.463Z,9.32
2023-03-19T03:16:40.520Z,9.37
2023-03-19T03:17:40.401Z,9.41
2023-03-19T03:18:40.349Z,9.43
2023-03-19T03:19:40.321Z,9.37
2023-03-19T03:20:40.349Z,9.43
2023-03-19T03:21:40.256Z,9.40
2023-03-19T03:22:40.233Z,9.44
2023-03-19T03:23:40.189Z,9.43
2023-03-19T03:24:40.155Z,9.46
2023-03-19T03:25:40.188Z,9.40
2023-03-19T03:26:40.082Z,9.37
2023-03-19T03:27:40.048Z,9.29
2023-03-19T03:28:40.024Z,9.26
2023-03-19T03:29:39.989Z,9.26
2023-03-19T03:30:39.948Z,9.31
2023-03-19T03:31:40.011Z,9.32
2023-03-19T03:32:39.909Z,9.26
2023-03-19T03:33:39.860Z,9.32
2023-03-19T03:34:39.817Z,9.32
2023-03-19T03:35:39.819Z,9.32
2023-03-19T03:36:39.739Z,9.21
2023-03-19T03:37:39.799Z,9.25
2023-03-19T03:38:39.682Z,9.18
2023-03-19T03:39:39.648Z,9.19
2023-03-19T03:40:39.624Z,9.13
2023-03-19T03:41:39.614Z,9.10
2023-03-19T03:42:39.551Z,9.04
2023-03-19T03:43:39.569Z,9.14
2023-03-19T03:44:39.477Z,9.16
2023-03-19T03:45:39.544Z,9.19
2023-03-19T03:46:39.403Z,9.21
2023-03-19T03:47:39.378Z,9.21
2023-03-19T03:48:39.401Z,9.10
2023-03-19T03:49:39.311Z,9.08
2023-03-19T03:50:39.276Z,9.10
2023-03-19T03:51:39.244Z,9.02
2023-03-19T03:52:39.202Z,8.94
2023-03-19T03:53:39.231Z,9.02
2023-03-19T03:54:39.145Z,8.94
2023-03-19T03:55:39.110Z,9.00
2023-03-19T03:56:39.074Z,9.04
2023-03-19T03:57:39.043Z,8.91
2023-03-19T03:58:39.051Z,9.00
2023-03-19T03:59:38.978Z,8.97
2023-03-19T04:00:38.934Z,9.00
2023-03-19T04:01:38.906Z,8.95
2023-03-19T04:02:38.936Z,8.99
2023-03-19T04:03:38.947Z,8.89
2023-03-19T04:04:38.798Z,8.85
2023-03-19T04:05:38.768Z,8.91
2023-03-19T04:06:38.735Z,8.81
2023-03-19T04:07:38.698Z,8.85
2023-03-19T04:08:38.732Z,8.73
2023-03-19T04:09:38.624Z,8.82
2023-03-19T04:10:38.594Z,8.81
2023-03-19T04:11:38.583Z,8.73
2023-03-19T04:12:38.523Z,8.76
2023-03-19T04:13:38.491Z,8.81
2023-03-19T04:14:38.518Z,8.74
2023-03-19T04:15:38.436Z,8.69
2023-03-19T04:16:38.433Z,8.73
2023-03-19T04:17:38.388Z,8.74
2023-03-19T04:18:38.376Z,8.73
2023-03-19T04:19:38.317Z,8.81
2023-03-19T04:20:38.341Z,8.74
2023-03-19T04:21:38.254Z,8.76
2023-03-19T04:22:38.187Z,8.78
2023-03-19T04:23:38.148Z,8.81
2023-03-19T04:24:38.122Z,8.92
2023-03-19T04:25:38.079Z,8.91
2023-03-19T04:26:38.128Z,8.91
2023-03-19T04:27:38.022Z,8.88
2023-03-19T04:28:37.986Z,8.91
2023-03-19T04:29:37.964Z,8.87
2023-03-19T04:30:38.277Z,8.99
2023-03-19T04:31:37.884Z,8.94
2023-03-19T04:32:37.992Z,8.94
2023-03-19T04:33:37.812Z,9.00
2023-03-19T04:34:37.784Z,8.99
2023-03-19T04:35:37.756Z,9.02
2023-03-19T04:36:37.706Z,9.03
2023-03-19T04:37:37.676Z,9.08
2023-03-19T04:38:37.696Z,9.08
2023-03-19T04:39:37.675Z,9.00
2023-03-19T04:40:37.582Z,9.00
2023-03-19T04:41:37.561Z,9.10
2023-03-19T04:42:37.503Z,9.00
2023-03-19T04:43:37.470Z,9.00
2023-03-19T04:44:37.489Z,9.13
2023-03-19T04:45:37.398Z,9.14
2023-03-19T04:46:37.369Z,9.16
2023-03-19T04:47:37.337Z,9.16
2023-03-19T04:48:37.303Z,9.19
2023-03-19T04:49:37.261Z,9.16
2023-03-19T04:50:37.299Z,9.14
2023-03-19T04:51:37.190Z,9.16
2023-03-19T04:52:37.160Z,9.22
2023-03-19T04:53:37.129Z,9.25
2023-03-19T04:54:37.107Z,9.23
2023-03-19T04:55:37.078Z,9.19
2023-03-19T04:56:37.087Z,9.18
2023-03-19T04:57:37.024Z,9.19
2023-03-19T04:58:36.962Z,9.13
2023-03-19T04:59:36.931Z,9.04
2023-03-19T05:00:36.881Z,9.00
2023-03-19T05:01:36.866Z,9.00
2023-03-19T05:02:36.869Z,9.04
2023-03-19T05:03:36.824Z,8.99
2023-03-19T05:04:36.750Z,8.99
2023-03-19T05:05:36.714Z,9.02
2023-03-19T05:06:36.671Z,9.03
2023-03-19T05:07:36.644Z,8.94
2023-03-19T05:08:36.662Z,8.92
2023-03-19T05:09:36.574Z,8.95
2023-03-19T05:10:36.772Z,8.94
2023-03-19T05:11:36.514Z,8.87
2023-03-19T05:12:36.630Z,8.71
2023-03-19T05:13:36.447Z,8.79
2023-03-19T05:14:36.410Z,8.69
2023-03-19T05:15:36.438Z,8.67
2023-03-19T05:16:36.343Z,8.69
2023-03-19T05:17:36.354Z,8.61
2023-03-19T05:18:36.262Z,8.53
2023-03-19T05:19:36.229Z,8.51
2023-03-19T05:20:36.328Z,8.53
2023-03-19T05:21:36.161Z,8.46
2023-03-19T05:22:36.208Z,8.46
2023-03-19T05:23:36.093Z,8.51
2023-03-19T05:24:36.063Z,8.45
2023-03-19T05:25:36.032Z,8.49
2023-03-19T05:26:35.990Z,8.52
2023-03-19T05:27:35.959Z,8.51
2023-03-19T05:28:42.826Z,8.38
2023-03-19T05:29:35.887Z,8.53
2023-03-19T05:30:36.172Z,8.58
2023-03-19T05:31:35.854Z,8.52
2023-03-19T05:32:35.816Z,8.61
2023-03-19T05:33:35.797Z,8.51
2023-03-19T05:34:35.734Z,8.49
2023-03-19T05:35:35.718Z,8.46
2023-03-19T05:36:35.652Z,8.58
2023-03-19T05:37:35.607Z,8.49
2023-03-19T05:38:35.647Z,8.49
2023-03-19T05:39:35.558Z,8.53
2023-03-19T05:40:35.689Z,8.52
2023-03-19T05:41:35.473Z,8.53
2023-03-19T05:42:35.478Z,8.61
2023-03-19T05:43:35.466Z,8.49
2023-03-19T05:44:35.381Z,8.49
2023-03-19T05:45:35.337Z,8.51
2023-03-19T05:46:35.324Z,8.52
2023-03-19T05:47:35.285Z,8.61
2023-03-19T05:48:35.315Z,8.53
2023-03-19T05:49:35.215Z,8.55
2023-03-19T05:50:35.404Z,8.60
2023-03-19T05:51:35.133Z,8.61
2023-03-19T05:52:35.117Z,8.69
2023-03-19T05:53:35.127Z,8.70
2023-03-19T05:54:35.036Z,8.76
2023-03-19T05:55:34.996Z,8.71
2023-03-19T05:56:34.951Z,8.87
2023-03-19T05:57:34.914Z,8.87
2023-03-19T05:58:34.885Z,8.91
2023-03-19T05:59:34.943Z,8.92
2023-03-19T06:00:35.155Z,8.88
2023-03-19T06:01:34.839Z,8.94
2023-03-19T06:02:34.795Z,9.02
2023-03-19T06:03:46.041Z,9.00
2023-03-19T06:04:34.907Z,9.02
2023-03-19T06:05:34.648Z,8.99
2023-03-19T06:06:34.620Z,9.02
2023-03-19T06:07:34.575Z,8.99
2023-03-19T06:08:34.540Z,9.11
2023-03-19T06:09:34.513Z,9.00
2023-03-19T06:10:34.777Z,9.06
2023-03-19T06:11:34.460Z,9.00
2023-03-19T06:12:34.411Z,9.04
2023-03-19T06:13:34.368Z,8.95
2023-03-19T06:14:34.337Z,8.99
2023-03-19T06:15:34.435Z,9.00
2023-03-19T06:16:34.327Z,8.95
2023-03-19T06:17:34.243Z,8.95
2023-03-19T06:18:34.288Z,9.02
2023-03-19T06:19:34.858Z,8.97
2023-03-19T06:20:34.305Z,8.97
2023-03-19T06:21:34.094Z,8.97
2023-03-19T06:22:34.123Z,9.00
2023-03-19T06:23:34.034Z,9.06
2023-03-19T06:24:34.003Z,9.06
2023-03-19T06:25:33.957Z,9.00
2023-03-19T06:26:33.928Z,9.00
2023-03-19T06:27:34.354Z,8.99
2023-03-19T06:28:33.917Z,8.99
2023-03-19T06:29:33.880Z,8.99
2023-03-19T06:30:34.016Z,8.99
2023-03-19T06:31:33.782Z,9.08
2023-03-19T06:32:33.736Z,9.16
2023-03-19T06:33:33.692Z,9.18
2023-03-19T06:34:33.706Z,9.13
2023-03-19T06:35:33.690Z,9.22
2023-03-19T06:36:33.602Z,9.19
2023-03-19T06:37:33.550Z,9.25
2023-03-19T06:38:33.515Z,9.32
2023-03-19T06:39:33.531Z,9.39
2023-03-19T06:40:33.810Z,9.37
2023-03-19T06:41:33.425Z,9.32
2023-03-19T06:42:33.422Z,9.40
2023-03-19T06:43:33.342Z,9.37
2023-03-19T06:44:33.300Z,9.31
2023-03-19T06:45:33.376Z,9.37
2023-03-19T06:46:33.320Z,9.37
2023-03-19T06:47:33.204Z,9.34
2023-03-19T06:48:33.201Z,9.44
2023-03-19T06:49:33.139Z,9.44
2023-03-19T06:50:33.359Z,9.43
2023-03-19T06:51:33.066Z,9.46
2023-03-19T06:52:33.094Z,9.44
2023-03-19T06:53:32.993Z,9.46
2023-03-19T06:54:32.963Z,9.48
2023-03-19T06:55:32.934Z,9.43
2023-03-19T06:56:32.893Z,9.41
2023-03-19T06:57:32.928Z,9.37
2023-03-19T06:58:32.827Z,9.43
2023-03-19T06:59:32.809Z,9.44
2023-03-19T07:00:33.099Z,9.40
2023-03-19T07:01:32.728Z,9.48
2023-03-19T07:02:32.762Z,9.40
2023-03-19T07:03:32.666Z,9.25
2023-03-19T07:04:32.693Z,9.26
2023-03-19T07:05:32.589Z,9.19
2023-03-19T07:06:32.550Z,9.31
2023-03-19T07:07:32.625Z,9.31
2023-03-19T07:08:32.489Z,9.41
2023-03-19T07:09:32.452Z,9.37
2023-03-19T07:10:32.578Z,9.61
2023-03-19T07:11:35.600Z,9.54
2023-03-19T07:12:32.367Z,9.61
2023-03-19T07:13:32.368Z,9.56
2023-03-19T07:14:32.279Z,9.68
2023-03-19T07:15:32.240Z,9.72
2023-03-19T07:16:33.109Z,9.77
2023-03-19T07:17:32.179Z,9.86
2023-03-19T07:18:32.151Z,9.89
2023-03-19T07:19:32.164Z,9.83
2023-03-19T07:20:32.248Z,9.86
2023-03-19T07:21:32.208Z,9.97
2023-03-19T07:22:32.004Z,9.98
2023-03-19T07:23:31.968Z,10.01
2023-03-19T07:24:31.936Z,10.09
2023-03-19T07:25:31.980Z,10.07
2023-03-19T07:26:31.871Z,10.13
2023-03-19T07:27:31.859Z,10.20
2023-03-19T07:28:31.825Z,10.15
2023-03-19T07:29:31.767Z,10.25
2023-03-19T07:30:31.961Z,10.28
2023-03-19T07:31:32.583Z,10.40
2023-03-19T07:32:31.732Z,10.41
2023-03-19T07:33:31.630Z,10.42
2023-03-19T07:34:31.717Z,10.53
2023-03-19T07:35:31.624Z,10.48
2023-03-19T07:36:31.597Z,10.35
2023-03-19T07:37:31.518Z,10.33
2023-03-19T07:38:31.467Z,10.30
2023-03-19T07:39:31.579Z,10.30
2023-03-19T07:40:31.494Z,10.15
2023-03-19T07:41:31.374Z,10.20
2023-03-19T07:42:31.397Z,10.25
2023-03-19T07:43:31.344Z,10.17
2023-03-19T07:44:31.264Z,10.26
2023-03-19T07:45:31.265Z,10.22
2023-03-19T07:46:31.200Z,10.17
2023-03-19T07:47:31.156Z,10.19
2023-03-19T07:48:31.196Z,10.15
2023-03-19T07:49:31.102Z,10.19
2023-03-19T07:50:31.126Z,10.26
2023-03-19T07:51:31.123Z,10.30
2023-03-19T07:52:31.008Z,10.26
2023-03-19T07:53:31.059Z,10.30
2023-03-19T07:54:30.950Z,10.31
2023-03-19T07:55:30.896Z,10.30
2023-03-19T07:56:30.882Z,10.28
2023-03-19T07:57:30.850Z,10.31
2023-03-19T07:58:30.808Z,10.20
2023-03-19T07:59:30.809Z,10.22
2023-03-19T08:00:30.724Z,10.17
2023-03-19T08:01:30.704Z,10.10
2023-03-19T08:02:30.726Z,10.05
2023-03-19T08:03:30.621Z,10.01
2023-03-19T08:04:30.631Z,10.02
2023-03-19T08:05:30.614Z,10.05
2023-03-19T08:06:30.521Z,10.10
2023-03-19T08:07:30.502Z,10.01
2023-03-19T08:08:30.478Z,9.99
2023-03-19T08:09:30.439Z,10.02
2023-03-19T08:10:30.409Z,10.13
2023-03-19T08:11:30.431Z,10.09
2023-03-19T08:12:30.330Z,10.12
2023-03-19T08:13:30.285Z,10.04
2023-03-19T08:14:30.276Z,10.01
2023-03-19T08:15:30.237Z,10.12
2023-03-19T08:16:30.213Z,10.01
2023-03-19T08:17:30.222Z,10.04
2023-03-19T08:18:30.167Z,10.23
2023-03-19T08:19:30.098Z,10.22
2023-03-19T08:20:30.054Z,10.22
2023-03-19T08:21:30.125Z,10.31
2023-03-19T08:22:30.012Z,10.49
2023-03-19T08:23:30.016Z,10.57
2023-03-19T08:24:29.926Z,10.48
2023-03-19T08:25:29.883Z,10.57
2023-03-19T08:26:29.850Z,10.74
2023-03-19T08:27:29.817Z,10.76
2023-03-19T08:28:32.390Z,10.86
2023-03-19T08:29:29.750Z,10.87
2023-03-19T08:30:29.722Z,10.89
2023-03-19T08:31:29.723Z,10.96
2023-03-19T08:32:29.708Z,11.04
2023-03-19T08:33:29.695Z,11.05
2023-03-19T08:34:29.620Z,10.97
2023-03-19T08:35:29.549Z,11.05
2023-03-19T08:36:29.522Z,11.00
2023-03-19T08:37:29.485Z,11.00
2023-03-19T08:38:29.573Z,11.14
2023-03-19T08:39:29.417Z,11.07
2023-03-19T08:40:29.388Z,11.11
2023-03-19T08:41:29.357Z,11.08
2023-03-19T08:42:29.330Z,11.04
2023-03-19T08:43:29.284Z,10.90
2023-03-19T08:44:29.310Z,10.87
2023-03-19T08:45:29.214Z,10.87
2023-03-19T08:46:29.282Z,10.82
2023-03-19T08:47:29.155Z,10.86
2023-03-19T08:48:29.123Z,10.81
2023-03-19T08:49:29.085Z,10.86
2023-03-19T08:50:29.125Z,10.82
2023-03-19T08:51:29.022Z,10.81
2023-03-19T08:52:28.985Z,10.89
2023-03-19T08:53:28.952Z,10.89
2023-03-19T08:54:28.960Z,10.87
2023-03-19T08:55:29.022Z,10.94
2023-03-19T08:56:28.931Z,10.97
2023-03-19T08:57:28.822Z,10.94
2023-03-19T08:58:28.797Z,10.89
2023-03-19T08:59:28.760Z,10.81
2023-03-19T09:00:28.736Z,10.87
2023-03-19T09:01:28.740Z,10.94
2023-03-19T09:02:28.717Z,11.04
2023-03-19T09:03:28.636Z,11.07
2023-03-19T09:04:28.648Z,11.11
2023-03-19T09:05:29.809Z,11.22
2023-03-19T09:06:28.529Z,11.19
2023-03-19T09:07:28.493Z,11.26
2023-03-19T09:08:28.576Z,11.35
2023-03-19T09:09:28.429Z,11.35
2023-03-19T09:10:28.401Z,11.43
2023-03-19T09:11:28.402Z,11.50
2023-03-19T09:12:28.339Z,11.55
2023-03-19T09:13:28.296Z,11.80
2023-03-19T09:14:28.326Z,11.97
2023-03-19T09:15:28.237Z,12.10
2023-03-19T09:16:28.256Z,12.17
2023-03-19T09:17:28.177Z,12.40
2023-03-19T09:18:28.145Z,12.31
2023-03-19T09:19:28.120Z,12.46
2023-03-19T09:20:28.170Z,12.58
2023-03-19T09:21:28.091Z,12.54
2023-03-19T09:22:28.008Z,12.60
2023-03-19T09:23:27.978Z,12.67
2023-03-19T09:24:27.946Z,12.64
2023-03-19T09:25:27.944Z,12.70
2023-03-19T09:26:27.940Z,12.65
2023-03-19T09:27:27.849Z,12.65
2023-03-19T09:28:27.820Z,12.70
2023-03-19T09:29:27.790Z,12.70
2023-03-19T09:30:27.751Z,12.65
2023-03-19T09:31:29.638Z,12.73
2023-03-19T09:32:27.708Z,12.68
2023-03-19T09:33:27.654Z,12.68
2023-03-19T09:34:27.633Z,12.72
2023-03-19T09:35:27.626Z,12.58
2023-03-19T09:36:27.578Z,12.67
2023-03-19T09:37:27.577Z,12.68
2023-03-19T09:38:27.500Z,12.97
2023-03-19T09:39:27.470Z,13.01
2023-03-19T09:40:27.433Z,12.97
2023-03-19T09:41:27.408Z,13.11
2023-03-19T09:42:27.424Z,13.15
2023-03-19T09:43:27.337Z,13.23
2023-03-19T09:44:27.316Z,13.22
2023-03-19T09:45:27.336Z,13.28
2023-03-19T09:46:27.292Z,13.25
2023-03-19T09:47:27.342Z,13.31
2023-03-19T09:48:27.185Z,13.39
2023-03-19T09:49:27.190Z,13.41
2023-03-19T09:50:27.116Z,13.41
2023-03-19T09:51:27.087Z,13.46
2023-03-19T09:52:27.054Z,13.52
2023-03-19T09:53:27.078Z,13.63
2023-03-19T09:54:26.993Z,13.71
2023-03-19T09:55:26.961Z,13.68
2023-03-19T09:56:26.934Z,13.72
2023-03-19T09:57:26.902Z,13.78
2023-03-19T09:58:26.864Z,13.77
2023-03-19T09:59:26.904Z,13.70
2023-03-19T10:00:26.800Z,13.44
2023-03-19T10:01:26.834Z,13.44
2023-03-19T10:02:26.751Z,13.42
2023-03-19T10:03:26.714Z,13.47
2023-03-19T10:04:26.702Z,13.53
2023-03-19T10:05:28.051Z,13.57
2023-03-19T10:06:26.626Z,13.67
2023-03-19T10:07:26.588Z,13.70
2023-03-19T10:08:30.407Z,13.95
2023-03-19T10:09:26.534Z,14.04
2023-03-19T10:10:26.496Z,14.23
2023-03-19T10:11:26.522Z,14.33
2023-03-19T10:12:26.523Z,14.35
2023-03-19T10:13:26.412Z,14.48
2023-03-19T10:14:26.396Z,14.35
2023-03-19T10:15:26.350Z,14.48
2023-03-19T10:16:26.354Z,14.55
2023-03-19T10:17:26.319Z,14.63
2023-03-19T10:18:26.316Z,14.78
2023-03-19T10:19:26.224Z,14.88
2023-03-19T10:20:26.449Z,15.02
2023-03-19T10:21:26.164Z,15.00
2023-03-19T10:22:26.130Z,15.09
2023-03-19T10:23:26.160Z,15.02
2023-03-19T10:24:26.073Z,15.17
2023-03-19T10:25:26.083Z,15.21
2023-03-19T10:26:26.017Z,15.21
2023-03-19T10:27:25.986Z,15.21
2023-03-19T10:28:26.019Z,15.24
2023-03-19T10:29:25.925Z,15.18
2023-03-19T10:30:25.890Z,15.24
2023-03-19T10:31:25.949Z,15.18
2023-03-19T10:32:25.825Z,15.11
2023-03-19T10:33:25.852Z,15.18
2023-03-19T10:34:25.779Z,15.10
2023-03-19T10:35:25.734Z,15.06
2023-03-19T10:36:25.713Z,15.04
2023-03-19T10:37:25.699Z,15.09
2023-03-19T10:38:25.707Z,14.79
2023-03-19T10:39:25.642Z,14.68
2023-03-19T10:40:25.591Z,14.48
2023-03-19T10:41:25.565Z,14.51
2023-03-19T10:42:25.540Z,14.62
2023-03-19T10:43:25.557Z,14.79
2023-03-19T10:44:25.549Z,14.91
2023-03-19T10:45:25.455Z,14.99
2023-03-19T10:46:25.510Z,15.06
2023-03-19T10:47:25.382Z,15.19
2023-03-19T10:48:27.961Z,15.37
2023-03-19T10:49:25.317Z,15.42
2023-03-19T10:50:25.331Z,15.62
2023-03-19T10:51:25.264Z,15.72
2023-03-19T10:52:25.228Z,15.73
2023-03-19T10:53:25.205Z,15.75
2023-03-19T10:54:25.262Z,15.72
2023-03-19T10:55:25.141Z,15.95
2023-03-19T10:56:25.112Z,16.00
2023-03-19T10:57:25.094Z,16.00
2023-03-19T10:58:25.064Z,15.95
2023-03-19T10:59:25.078Z,15.84
2023-03-19T11:00:25.012Z,15.95
2023-03-19T11:01:25.040Z,16.04
2023-03-19T11:02:25.589Z,16.17
2023-03-19T11:03:25.035Z,16.05
2023-03-19T11:04:24.942Z,16.09
2023-03-19T11:05:24.865Z,16.28
2023-03-19T11:06:24.820Z,16.00
2023-03-19T11:07:24.792Z,15.98
2023-03-19T11:08:35.221Z,15.95
2023-03-19T11:09:24.791Z,15.77
2023-03-19T11:10:24.701Z,15.61
2023-03-19T11:11:24.679Z,15.54
2023-03-19T11:12:24.753Z,15.55
2023-03-19T11:13:24.609Z,15.52
2023-03-19T11:14:24.585Z,15.51
2023-03-19T11:15:24.618Z,15.72
2023-03-19T11:16:24.784Z,15.75
2023-03-19T11:17:24.507Z,15.75
2023-03-19T11:18:24.472Z,15.70
2023-03-19T11:19:24.442Z,15.83
2023-03-19T11:20:24.410Z,16.01
2023-03-19T11:21:24.439Z,16.23
2023-03-19T11:22:24.382Z,16.20
2023-03-19T11:23:24.316Z,16.31
2023-03-19T11:24:24.296Z,16.28
2023-03-19T11:25:24.257Z,16.28
2023-03-19T11:26:24.229Z,16.35
2023-03-19T11:27:24.256Z,16.39
2023-03-19T11:28:26.151Z,16.43
2023-03-19T11:29:24.163Z,16.49
2023-03-19T11:30:24.122Z,16.49
2023-03-19T11:31:24.139Z,16.49
2023-03-19T11:32:24.082Z,16.50
2023-03-19T11:33:24.192Z,16.60
2023-03-19T11:34:24.007Z,16.51
2023-03-19T11:35:23.979Z,16.68
2023-03-19T11:36:23.963Z,16.74
2023-03-19T11:37:23.952Z,16.71
2023-03-19T11:38:23.944Z,16.79
2023-03-19T11:39:23.857Z,16.83
2023-03-19T11:40:25.310Z,16.86
2023-03-19T11:41:23.810Z,16.91
2023-03-19T11:42:23.780Z,16.83
2023-03-19T11:43:23.745Z,16.78
2023-03-19T11:44:23.879Z,16.74
2023-03-19T11:45:23.679Z,16.83
2023-03-19T11:46:23.699Z,16.71
2023-03-19T11:47:27.505Z,16.76
2023-03-19T11:48:23.594Z,16.75
2023-03-19T11:49:23.571Z,16.81
2023-03-19T11:50:23.601Z,16.83
2023-03-19T11:51:23.652Z,16.96
2023-03-19T11:52:23.489Z,16.97
2023-03-19T11:53:23.468Z,17.12
2023-03-19T11:54:23.431Z,17.14
2023-03-19T11:55:23.399Z,17.11
2023-03-19T11:56:23.430Z,17.09
2023-03-19T11:57:23.365Z,17.11
2023-03-19T11:58:23.320Z,17.11
2023-03-19T11:59:23.284Z,17.11
2023-03-19T12:00:23.266Z,17.24
2023-03-19T12:01:23.252Z,17.15
2023-03-19T12:02:23.268Z,17.19
2023-03-19T12:03:23.240Z,17.16
2023-03-19T12:04:31.115Z,17.14
2023-03-19T12:05:23.117Z,16.97
2023-03-19T12:06:23.086Z,16.91
2023-03-19T12:07:23.065Z,16.86
2023-03-19T12:08:23.092Z,16.72
2023-03-19T12:09:23.001Z,16.54
2023-03-19T12:10:22.977Z,16.49
2023-03-19T12:11:22.947Z,16.50
2023-03-19T12:12:24.350Z,16.43
2023-03-19T12:13:22.886Z,16.39
2023-03-19T12:14:22.937Z,16.46
2023-03-19T12:15:22.829Z,16.39
2023-03-19T12:16:22.852Z,16.36
2023-03-19T12:17:26.480Z,16.38
2023-03-19T12:18:22.755Z,16.29
2023-03-19T12:19:22.712Z,16.20
2023-03-19T12:20:22.747Z,16.12
2023-03-19T12:21:22.801Z,15.97
2023-03-19T12:22:22.630Z,15.88
2023-03-19T12:23:22.599Z,15.97
2023-03-19T12:24:22.575Z,16.05
2023-03-19T12:25:22.563Z,16.08
2023-03-19T12:26:22.568Z,16.02
2023-03-19T12:27:22.481Z,16.09
2023-03-19T12:28:22.511Z,16.01
2023-03-19T12:29:22.719Z,16.00
2023-03-19T12:30:22.422Z,16.05
2023-03-19T12:31:22.470Z,16.01
2023-03-19T12:32:22.355Z,16.08
2023-03-19T12:33:22.358Z,16.04
2023-03-19T12:34:22.285Z,16.08
2023-03-19T12:35:22.246Z,16.09
2023-03-19T12:36:22.224Z,16.08
2023-03-19T12:37:22.191Z,16.10
2023-03-19T12:38:22.214Z,16.04
2023-03-19T12:39:22.230Z,15.98
2023-03-19T12:40:22.151Z,15.90
2023-03-19T12:41:22.080Z,15.95
2023-03-19T12:42:22.049Z,16.00
2023-03-19T12:43:22.016Z,16.09
2023-03-19T12:44:22.045Z,16.09
2023-03-19T12:45:21.990Z,16.13
2023-03-19T12:46:22.076Z,16.29
2023-03-19T12:47:21.909Z,16.35
2023-03-19T12:48:21.878Z,16.43
2023-03-19T12:49:22.004Z,16.42
2023-03-19T12:50:21.813Z,16.58
2023-03-19T12:51:22.638Z,16.64
2023-03-19T12:52:21.776Z,16.65
2023-03-19T12:53:21.804Z,16.86
2023-03-19T12:54:21.911Z,16.86
2023-03-19T12:55:21.781Z,16.94
2023-03-19T12:56:21.636Z,17.04
2023-03-19T12:57:21.601Z,17.11
2023-03-19T12:58:21.582Z,17.06
2023-03-19T12:59:21.550Z,17.19
2023-03-19T13:00:21.576Z,17.33
2023-03-19T13:01:21.558Z,17.30
2023-03-19T13:02:21.778Z,17.36
2023-03-19T13:03:21.431Z,17.57
2023-03-19T13:04:21.477Z,17.63
2023-03-19T13:05:21.375Z,17.71
2023-03-19T13:06:21.426Z,17.80
2023-03-19T13:07:21.332Z,17.85
2023-03-19T13:08:21.312Z,17.89
2023-03-19T13:09:21.265Z,17.98
2023-03-19T13:10:21.259Z,17.97